METAR Data

Data at: 2243 UTC 26 Feb 2020

METAR for:KHTO (East Hampton Arpt, NY, US)
Text:KHTO 262235Z AUTO 08007KT 10SM BKN008 OVC016 07/05 A2989 RMK AO2 T00650050
Temperature: 6.5°C ( 44°F)
Dewpoint: 5.0°C ( 41°F) [RH = 90%]
Pressure (altimeter):29.89 inches Hg (1012.3 mb)
Winds:from the E (80 degrees) at 8 MPH (7 knots; 3.6 m/s)
Visibility:10 or more sm (16+ km)
Ceiling:800 feet AGL
Clouds: broken clouds at 800 feet AGL, overcast cloud deck at 1600 feet AGL
QC Flag:automated observation with no human augmentation